Kampala, Uganda
Current Conditions -  °F | °C
As of 10:00 PM on Thursday 18 Dec 2014 (Local Time) from HUEN Reporting Station
Few Clouds Few Clouds  
Wind Chill: 72°   Ceiling: Unl
Heat Index: 72°   Visibility: 6mi
Dew Point: 68°   Wind: 3mph
Humidity: 88%   Direction: 10°N
Pressure: 30.09"   Gusts: NA
Location:  0.32°N, 32.58°E
Report Text: HUEN 181900Z 01003KT 9000 FEW019 FEW021CB 22/20 Q1019
Loading
Personal Weather Stations






























Interactive Weather Map New forecast layout! Learn more

10-Day Weather Forecast

Advertisements
Track Severe Weather on mobile